Time;durP1;ratioP1;P1;durP2;ratioP2;P2;SDS_P1;SDS_P2;PMS_P1;PMS_P2;Temp;Humidity;BMP_temperature;BMP_pressure;BME280_temperature;BME280_humidity;BME280_pressure;Samples;Min_cycle;Max_cycle;Signal;HPM_P1;HPM_P2
2022/04/07 00:00:24;;;;;;;;;;;;;;;;;;5053789;28;19909;-74
2022/04/07 00:02:50;;;;;;;;;;;;;;;;;;5054127;28;19978;-71
2022/04/07 00:05:16;;;;;;;;;;;;;;;;;;5054061;28;20007;-70
2022/04/07 00:07:42;;;;;;;;;;;;;;;;;;5054210;28;19904;-72
2022/04/07 00:10:08;;;;;;;;;;;;;;;;;;5053562;28;20350;-70
2022/04/07 00:12:34;;;;;;;;;;;;;;;;;;5053987;28;19912;-70
2022/04/07 00:15:00;;;;;;;;;;;;;;;;;;5054056;28;20277;-69
2022/04/07 00:17:26;;;;;;;;;;;;;;;;;;5054072;28;19913;-71
2022/04/07 00:19:52;;;;;;;;;;;;;;;;;;5053444;28;19912;-71
2022/04/07 00:22:18;;;;;;;;;;;;;;;;;;5053712;28;19904;-69
2022/04/07 00:24:44;;;;;;;;;;;;;;;;;;5053776;28;19912;-69
2022/04/07 00:27:10;;;;;;;;;;;;;;;;;;5053872;28;20468;-68
2022/04/07 00:29:36;;;;;;;;;;;;;;;;;;5053320;28;19909;-68
2022/04/07 00:32:05;;;;;;;;;;;;;;;;;;5053662;28;19904;-68
2022/04/07 00:34:31;;;;;;;;;;;;;;;;;;5053412;28;19905;-70
2022/04/07 00:36:57;;;;;;;;;;;;;;;;;;5052639;28;20269;-72
2022/04/07 00:39:23;;;;;;;;;;;;;;;;;;5053045;28;20330;-70
2022/04/07 00:41:49;;;;;;;;;;;;;;;;;;5053382;28;19905;-70
2022/04/07 00:44:15;;;;;;;;;;;;;;;;;;5053247;28;19916;-67
2022/04/07 00:46:41;;;;;;;;;;;;;;;;;;5053445;28;19937;-68
2022/04/07 00:49:07;;;;;;;;;;;;;;;;;;5052898;28;19908;-64
2022/04/07 00:51:32;;;;;;;;;;;;;;;;;;5053128;28;19915;-66
2022/04/07 00:53:58;;;;;;;;;;;;;;;;;;5053230;28;19912;-64
2022/04/07 00:56:24;;;;;;;;;;;;;;;;;;5053202;28;20010;-68
2022/04/07 00:58:50;;;;;;;;;;;;;;;;;;5052904;28;19911;-67
2022/04/07 01:01:20;;;;;;;;;;;;;;;;;;5053083;28;19995;-64
2022/04/07 01:03:46;;;;;;;;;;;;;;;;;;5053022;28;19971;-73
2022/04/07 01:06:12;;;;;;;;;;;;;;;;;;5053040;28;19905;-69
2022/04/07 01:08:38;;;;;;;;;;;;;;;;;;5054028;28;19958;-72
2022/04/07 01:11:03;;;;;;;;;;;;;;;;;;5052826;28;20353;-72
2022/04/07 01:13:29;;;;;;;;;;;;;;;;;;5052893;28;19912;-74
2022/04/07 01:15:55;;;;;;;;;;;;;;;;;;5052888;28;19947;-72
2022/04/07 01:18:21;;;;;;;;;;;;;;;;;;5052605;28;20256;-72
2022/04/07 01:20:47;;;;;;;;;;;;;;;;;;5052370;28;19909;-68
2022/04/07 01:23:13;;;;;;;;;;;;;;;;;;5052693;28;19905;-69
2022/04/07 01:25:39;;;;;;;;;;;;;;;;;;5052782;28;20258;-70
2022/04/07 01:28:05;;;;;;;;;;;;;;;;;;5052774;28;19905;-68
2022/04/07 01:30:32;;;;;;;;;;;;;;;;;;5052223;28;20253;-67
2022/04/07 01:32:57;;;;;;;;;;;;;;;;;;5052542;28;19905;-68
2022/04/07 01:35:24;;;;;;;;;;;;;;;;;;5052495;28;19911;-72
2022/04/07 01:37:50;;;;;;;;;;;;;;;;;;5052475;28;20361;-71
2022/04/07 01:40:15;;;;;;;;;;;;;;;;;;5051857;28;19951;-70
2022/04/07 01:42:41;;;;;;;;;;;;;;;;;;5052209;28;19904;-71
2022/04/07 01:45:07;;;;;;;;;;;;;;;;;;5052172;28;19962;-71
2022/04/07 01:47:33;;;;;;;;;;;;;;;;;;5051926;28;20273;-69
2022/04/07 01:49:59;;;;;;;;;;;;;;;;;;5051902;28;19905;-68
2022/04/07 01:52:25;;;;;;;;;;;;;;;;;;5052112;28;19912;-69
2022/04/07 01:54:51;;;;;;;;;;;;;;;;;;5052199;28;19912;-69
2022/04/07 01:57:22;;;;;;;;;;;;;;;;;;5052242;28;19916;-71
2022/04/07 01:59:48;;;;;;;;;;;;;;;;;;5051836;28;19992;-70
2022/04/07 02:02:14;;;;;;;;;;;;;;;;;;5051996;28;19940;-69
2022/04/07 02:04:40;;;;;;;;;;;;;;;;;;5052127;28;19934;-71
2022/04/07 02:07:06;;;;;;;;;;;;;;;;;;5052178;28;19912;-70
2022/04/07 02:09:33;;;;;;;;;;;;;;;;;;5051612;28;20237;-69
2022/04/07 02:12:01;;;;;;;;;;;;;;;;;;5052176;28;19904;-69
2022/04/07 02:14:26;;;;;;;;;;;;;;;;;;5052001;28;19908;-70
2022/04/07 02:16:52;;;;;;;;;;;;;;;;;;5052110;28;19904;-70
2022/04/07 02:19:18;;;;;;;;;;;;;;;;;;5051629;28;20328;-70
2022/04/07 02:21:45;;;;;;;;;;;;;;;;;;5052129;28;19909;-71
2022/04/07 02:24:11;;;;;;;;;;;;;;;;;;5051954;28;20412;-70
2022/04/07 02:26:37;;;;;;;;;;;;;;;;;;5052041;28;20000;-70
2022/04/07 02:29:03;;;;;;;;;;;;;;;;;;5051547;28;19948;-69
2022/04/07 02:31:29;;;;;;;;;;;;;;;;;;5053262;28;19927;-67
2022/04/07 02:33:55;;;;;;;;;;;;;;;;;;5051821;28;19908;-70
2022/04/07 02:36:20;;;;;;;;;;;;;;;;;;5051935;28;19940;-70
2022/04/07 02:38:46;;;;;;;;;;;;;;;;;;5051548;28;20254;-70
2022/04/07 02:41:12;;;;;;;;;;;;;;;;;;5051618;28;20272;-71
2022/04/07 02:43:38;;;;;;;;;;;;;;;;;;5051667;28;19913;-69
2022/04/07 02:46:04;;;;;;;;;;;;;;;;;;5051732;28;19915;-66
2022/04/07 02:48:30;;;;;;;;;;;;;;;;;;5051626;28;19908;-69
2022/04/07 02:50:56;;;;;;;;;;;;;;;;;;5051428;28;20259;-70
2022/04/07 02:53:22;;;;;;;;;;;;;;;;;;5051749;28;19909;-71
2022/04/07 02:55:48;;;;;;;;;;;;;;;;;;5051631;28;19905;-69
2022/04/07 02:58:14;;;;;;;;;;;;;;;;;;5053033;28;19904;-71
2022/04/07 03:00:39;;;;;;;;;;;;;;;;;;5055001;28;19936;-70
2022/04/07 03:03:05;;;;;;;;;;;;;;;;;;5055442;28;19911;-71
2022/04/07 03:05:31;;;;;;;;;;;;;;;;;;5055363;28;20596;-71
2022/04/07 03:07:57;;;;;;;;;;;;;;;;;;5055277;28;20238;-71
2022/04/07 03:10:23;;;;;;;;;;;;;;;;;;5054728;28;19912;-70
2022/04/07 03:12:49;;;;;;;;;;;;;;;;;;5056543;28;19912;-69
2022/04/07 03:15:15;;;;;;;;;;;;;;;;;;5055282;28;19905;-70
2022/04/07 03:17:41;;;;;;;;;;;;;;;;;;5055310;28;19904;-69
2022/04/07 03:20:07;;;;;;;;;;;;;;;;;;5054761;28;19908;-74
2022/04/07 03:22:33;;;;;;;;;;;;;;;;;;5056238;28;19974;-73
2022/04/07 03:24:58;;;;;;;;;;;;;;;;;;5054974;28;19952;-71
2022/04/07 03:27:24;;;;;;;;;;;;;;;;;;5054977;28;20003;-71
2022/04/07 03:29:50;;;;;;;;;;;;;;;;;;5054429;28;20242;-70
2022/04/07 03:32:16;;;;;;;;;;;;;;;;;;5054975;28;19904;-70
2022/04/07 03:34:42;;;;;;;;;;;;;;;;;;5054784;28;20254;-68
2022/04/07 03:37:08;;;;;;;;;;;;;;;;;;5054809;28;20296;-69
2022/04/07 03:39:34;;;;;;;;;;;;;;;;;;5054290;28;19905;-70
2022/04/07 03:42:00;;;;;;;;;;;;;;;;;;5054645;28;20003;-69
2022/04/07 03:44:26;;;;;;;;;;;;;;;;;;5054606;28;19952;-73
2022/04/07 03:46:52;;;;;;;;;;;;;;;;;;5054452;28;20013;-74
2022/04/07 03:49:18;;;;;;;;;;;;;;;;;;5054016;28;19905;-73
2022/04/07 03:51:44;;;;;;;;;;;;;;;;;;5055666;28;19919;-73
2022/04/07 03:54:10;;;;;;;;;;;;;;;;;;5054223;28;19911;-68
2022/04/07 03:56:36;;;;;;;;;;;;;;;;;;5054372;28;19908;-69
2022/04/07 03:59:02;;;;;;;;;;;;;;;;;;5053983;28;19944;-70
2022/04/07 04:01:28;;;;;;;;;;;;;;;;;;5061534;28;20376;-72
2022/04/07 04:03:54;;;;;;;;;;;;;;;;;;5074167;28;19944;-72
2022/04/07 04:06:20;;;;;;;;;;;;;;;;;;5073733;28;20360;-68
2022/04/07 04:08:46;;;;;;;;;;;;;;;;;;5055240;28;19909;-68
2022/04/07 04:11:13;;;;;;;;;;;;;;;;;;5053939;28;20243;-69
2022/04/07 04:13:39;;;;;;;;;;;;;;;;;;5055444;28;20390;-70
2022/04/07 04:16:05;;;;;;;;;;;;;;;;;;5054065;28;19935;-71
2022/04/07 04:18:30;;;;;;;;;;;;;;;;;;5055340;28;19909;-70
2022/04/07 04:20:56;;;;;;;;;;;;;;;;;;5073721;28;19923;-70
2022/04/07 04:23:22;;;;;;;;;;;;;;;;;;5073834;28;19995;-72
2022/04/07 04:25:48;;;;;;;;;;;;;;;;;;5073743;28;19966;-71
2022/04/07 04:28:14;;;;;;;;;;;;;;;;;;5071318;28;20424;-70
2022/04/07 04:30:40;;;;;;;;;;;;;;;;;;5055086;28;19916;-68
2022/04/07 04:33:06;;;;;;;;;;;;;;;;;;5064723;28;19911;-74
2022/04/07 04:35:32;;;;;;;;;;;;;;;;;;5053645;28;19989;-76
2022/04/07 04:37:58;;;;;;;;;;;;;;;;;;5053616;28;20377;-73
2022/04/07 04:40:24;;;;;;;;;;;;;;;;;;5052358;28;20007;-73
2022/04/07 04:42:50;;;;;;;;;;;;;;;;;;5052700;28;19936;-72
2022/04/07 04:45:16;;;;;;;;;;;;;;;;;;5054794;28;20441;-72
2022/04/07 04:47:42;;;;;;;;;;;;;;;;;;5053399;28;19905;-72
2022/04/07 04:50:07;;;;;;;;;;;;;;;;;;5052950;28;19955;-69
2022/04/07 04:52:33;;;;;;;;;;;;;;;;;;5053171;28;19991;-72
2022/04/07 04:54:59;;;;;;;;;;;;;;;;;;5054594;28;19905;-68
2022/04/07 04:57:25;;;;;;;;;;;;;;;;;;5053388;28;19905;-69
2022/04/07 04:59:51;;;;;;;;;;;;;;;;;;5052358;28;19905;-73
2022/04/07 05:02:17;;;;;;;;;;;;;;;;;;5060961;28;20393;-69
2022/04/07 05:04:43;;;;;;;;;;;;;;;;;;5064297;28;20010;-70
2022/04/07 05:07:09;;;;;;;;;;;;;;;;;;5064984;28;20385;-71
2022/04/07 05:09:37;;;;;;;;;;;;;;;;;;5069204;28;19911;-68
2022/04/07 05:12:03;;;;;;;;;;;;;;;;;;5061448;28;19912;-69
2022/04/07 05:14:29;;;;;;;;;;;;;;;;;;5062643;28;20269;-66
2022/04/07 05:16:55;;;;;;;;;;;;;;;;;;5052609;28;19904;-68
2022/04/07 05:19:21;;;;;;;;;;;;;;;;;;5059557;28;19913;-68
2022/04/07 05:21:49;;;;;;;;;;;;;;;;;;5068746;28;19912;-68
2022/04/07 05:24:17;;;;;;;;;;;;;;;;;;5063446;28;19920;-71
2022/04/07 05:26:43;;;;;;;;;;;;;;;;;;5067152;28;19908;-70
2022/04/07 05:29:09;;;;;;;;;;;;;;;;;;5062855;28;19943;-70
2022/04/07 05:31:35;;;;;;;;;;;;;;;;;;5065723;28;19955;-70
2022/04/07 05:34:01;;;;;;;;;;;;;;;;;;5065880;28;19936;-67
2022/04/07 05:36:27;;;;;;;;;;;;;;;;;;5052665;28;20316;-70
2022/04/07 05:38:53;;;;;;;;;;;;;;;;;;5052200;28;19939;-71
2022/04/07 05:41:19;;;;;;;;;;;;;;;;;;5052279;28;19904;-68
2022/04/07 05:43:45;;;;;;;;;;;;;;;;;;5052293;28;19919;-69
2022/04/07 05:46:10;;;;;;;;;;;;;;;;;;5052380;28;19909;-66
2022/04/07 05:48:36;;;;;;;;;;;;;;;;;;5052157;28;19911;-71
2022/04/07 05:51:02;;;;;;;;;;;;;;;;;;5051879;28;19921;-70
2022/04/07 05:53:28;;;;;;;;;;;;;;;;;;5052235;28;20545;-65
2022/04/07 05:55:54;;;;;;;;;;;;;;;;;;5052113;28;19959;-69
2022/04/07 05:58:21;;;;;;;;;;;;;;;;;;5052258;28;19905;-72
2022/04/07 06:00:47;;;;;;;;;;;;;;;;;;5051879;28;19992;-71
2022/04/07 06:03:13;;;;;;;;;;;;;;;;;;5052261;28;19905;-67
2022/04/07 06:05:38;;;;;;;;;;;;;;;;;;5052163;28;19909;-69
2022/04/07 06:08:04;;;;;;;;;;;;;;;;;;5052122;28;19911;-67
2022/04/07 06:10:30;;;;;;;;;;;;;;;;;;5051497;28;19911;-67
2022/04/07 06:12:56;;;;;;;;;;;;;;;;;;5052119;28;19948;-67
2022/04/07 06:15:23;;;;;;;;;;;;;;;;;;5051848;28;20407;-67
2022/04/07 06:17:50;;;;;;;;;;;;;;;;;;5052115;28;19904;-67
2022/04/07 06:20:16;;;;;;;;;;;;;;;;;;5051691;28;19905;-66
2022/04/07 06:22:41;;;;;;;;;;;;;;;;;;5051868;28;19912;-63
2022/04/07 06:25:07;;;;;;;;;;;;;;;;;;5053289;28;19915;-67
2022/04/07 06:27:33;;;;;;;;;;;;;;;;;;5051927;28;19931;-67
2022/04/07 06:29:59;;;;;;;;;;;;;;;;;;5051514;28;19905;-69
2022/04/07 06:32:25;;;;;;;;;;;;;;;;;;5051747;28;20413;-67
2022/04/07 06:34:51;;;;;;;;;;;;;;;;;;5054371;28;20357;-67
2022/04/07 06:37:17;;;;;;;;;;;;;;;;;;5055909;28;19940;-68
2022/04/07 06:39:43;;;;;;;;;;;;;;;;;;5055411;28;20264;-67
2022/04/07 06:42:09;;;;;;;;;;;;;;;;;;5055651;28;19934;-65
2022/04/07 06:44:34;;;;;;;;;;;;;;;;;;5055701;28;19916;-66
2022/04/07 06:47:00;;;;;;;;;;;;;;;;;;5055736;28;19958;-68
2022/04/07 06:49:26;;;;;;;;;;;;;;;;;;5055317;28;20361;-67
2022/04/07 06:51:52;;;;;;;;;;;;;;;;;;5055444;28;19919;-65
2022/04/07 06:54:18;;;;;;;;;;;;;;;;;;5055568;28;19950;-66
2022/04/07 06:56:44;;;;;;;;;;;;;;;;;;5055464;28;19904;-65
2022/04/07 06:59:10;;;;;;;;;;;;;;;;;;5056462;28;19912;-65
2022/04/07 07:01:36;;;;;;;;;;;;;;;;;;5055431;28;19912;-66
2022/04/07 07:04:02;;;;;;;;;;;;;;;;;;5055245;28;20366;-64
2022/04/07 07:06:27;;;;;;;;;;;;;;;;;;5055158;28;19948;-65
2022/04/07 07:08:53;;;;;;;;;;;;;;;;;;5054908;28;19900;-65
2022/04/07 07:11:19;;;;;;;;;;;;;;;;;;5055171;28;19912;-68
2022/04/07 07:13:45;;;;;;;;;;;;;;;;;;5055263;28;19905;-67
2022/04/07 07:16:11;;;;;;;;;;;;;;;;;;5055048;28;19936;-65
2022/04/07 07:18:38;;;;;;;;;;;;;;;;;;5056214;28;19999;-65
2022/04/07 07:21:04;;;;;;;;;;;;;;;;;;5054936;28;20382;-68
2022/04/07 07:23:32;;;;;;;;;;;;;;;;;;5054945;28;19905;-67
2022/04/07 07:25:58;;;;;;;;;;;;;;;;;;5054803;28;19926;-68
2022/04/07 07:28:24;;;;;;;;;;;;;;;;;;5054709;28;19905;-65
2022/04/07 07:30:49;;;;;;;;;;;;;;;;;;5054575;28;19924;-65
2022/04/07 07:33:15;;;;;;;;;;;;;;;;;;5054934;28;19904;-67
2022/04/07 07:35:46;;;;;;;;;;;;;;;;;;5055036;28;19905;-67
2022/04/07 07:38:11;;;;;;;;;;;;;;;;;;5054839;28;19905;-67
2022/04/07 07:40:37;;;;;;;;;;;;;;;;;;5054243;28;20280;-65
2022/04/07 07:43:03;;;;;;;;;;;;;;;;;;5054733;28;19909;-67
2022/04/07 07:45:29;;;;;;;;;;;;;;;;;;5054083;28;19955;-67
2022/04/07 07:47:55;;;;;;;;;;;;;;;;;;5054493;28;19904;-66
2022/04/07 07:50:21;;;;;;;;;;;;;;;;;;5054232;28;19912;-65
2022/04/07 07:52:47;;;;;;;;;;;;;;;;;;5054698;28;19940;-66
2022/04/07 07:55:13;;;;;;;;;;;;;;;;;;5054657;28;19905;-66
2022/04/07 07:57:39;;;;;;;;;;;;;;;;;;5054507;28;19912;-66
2022/04/07 08:00:07;;;;;;;;;;;;;;;;;;5053925;28;20368;-68
2022/04/07 08:02:34;;;;;;;;;;;;;;;;;;5054163;28;19912;-67
2022/04/07 08:05:00;;;;;;;;;;;;;;;;;;5054261;28;19912;-67
2022/04/07 08:07:25;;;;;;;;;;;;;;;;;;5054238;28;19916;-66
2022/04/07 08:09:51;;;;;;;;;;;;;;;;;;5053812;28;20350;-65
2022/04/07 08:12:17;;;;;;;;;;;;;;;;;;5054241;28;19955;-68
2022/04/07 08:14:43;;;;;;;;;;;;;;;;;;5054164;28;19912;-65
2022/04/07 08:17:09;;;;;;;;;;;;;;;;;;5054048;28;20364;-65
2022/04/07 08:19:35;;;;;;;;;;;;;;;;;;5053642;28;20250;-67
2022/04/07 08:22:02;;;;;;;;;;;;;;;;;;5053900;28;19912;-69
2022/04/07 08:24:28;;;;;;;;;;;;;;;;;;5053883;28;19954;-69
2022/04/07 08:26:54;;;;;;;;;;;;;;;;;;5054037;28;19905;-68
2022/04/07 08:29:20;;;;;;;;;;;;;;;;;;5053556;28;19904;-68
2022/04/07 08:31:46;;;;;;;;;;;;;;;;;;5053871;28;19915;-71
2022/04/07 08:34:12;;;;;;;;;;;;;;;;;;5053717;28;19912;-69
2022/04/07 08:36:39;;;;;;;;;;;;;;;;;;5053589;28;19905;-70
2022/04/07 08:39:05;;;;;;;;;;;;;;;;;;5054632;28;19905;-73
2022/04/07 08:41:31;;;;;;;;;;;;;;;;;;5053621;28;19911;-71
2022/04/07 08:43:57;;;;;;;;;;;;;;;;;;5053340;28;20341;-68
2022/04/07 08:46:23;;;;;;;;;;;;;;;;;;5053447;28;19958;-71
2022/04/07 08:48:49;;;;;;;;;;;;;;;;;;5053059;28;19905;-68
2022/04/07 08:51:15;;;;;;;;;;;;;;;;;;5053216;28;19923;-72
2022/04/07 08:53:41;;;;;;;;;;;;;;;;;;5053589;28;20007;-69
2022/04/07 08:56:07;;;;;;;;;;;;;;;;;;5052696;28;19909;-68
2022/04/07 08:58:32;;;;;;;;;;;;;;;;;;5052898;28;19905;-70
2022/04/07 09:01:02;;;;;;;;;;;;;;;;;;5053350;28;20288;-70
2022/04/07 09:03:28;;;;;;;;;;;;;;;;;;5053180;28;19991;-69
2022/04/07 09:05:54;;;;;;;;;;;;;;;;;;5054420;28;19956;-70
2022/04/07 09:08:20;;;;;;;;;;;;;;;;;;5053072;28;20402;-69
2022/04/07 09:10:46;;;;;;;;;;;;;;;;;;5052626;28;20007;-68
2022/04/07 09:13:12;;;;;;;;;;;;;;;;;;5054310;28;19982;-68
2022/04/07 09:15:38;;;;;;;;;;;;;;;;;;5054152;28;20357;-66
2022/04/07 09:18:05;;;;;;;;;;;;;;;;;;5052971;28;19904;-68
2022/04/07 09:20:31;;;;;;;;;;;;;;;;;;5052379;28;19996;-69
2022/04/07 09:22:57;;;;;;;;;;;;;;;;;;5052724;28;19944;-69
2022/04/07 09:25:22;;;;;;;;;;;;;;;;;;5052681;28;19909;-71
2022/04/07 09:27:48;;;;;;;;;;;;;;;;;;5052799;28;20346;-72
2022/04/07 09:30:14;;;;;;;;;;;;;;;;;;5052209;28;19940;-69
2022/04/07 09:32:40;;;;;;;;;;;;;;;;;;5052638;28;19923;-68
2022/04/07 09:35:06;;;;;;;;;;;;;;;;;;5052567;28;19910;-68
2022/04/07 09:37:32;;;;;;;;;;;;;;;;;;5052546;28;19939;-70
2022/04/07 09:39:58;;;;;;;;;;;;;;;;;;5051775;28;20362;-67
2022/04/07 09:42:25;;;;;;;;;;;;;;;;;;5057574;28;20369;-75
2022/04/07 09:44:51;;;;;;;;;;;;;;;;;;5067972;28;20262;-72
2022/04/07 09:47:17;;;;;;;;;;;;;;;;;;5056122;28;19912;-75
2022/04/07 09:49:43;;;;;;;;;;;;;;;;;;5063891;28;20385;-74
2022/04/07 09:52:09;;;;;;;;;;;;;;;;;;5054471;28;19949;-75
2022/04/07 09:54:35;;;;;;;;;;;;;;;;;;5063470;28;20004;-71
2022/04/07 09:57:01;;;;;;;;;;;;;;;;;;5070558;28;19908;-74
2022/04/07 09:59:27;;;;;;;;;;;;;;;;;;5061111;28;19992;-71
2022/04/07 10:01:53;;;;;;;;;;;;;;;;;;5069482;28;19908;-72
2022/04/07 10:04:19;;;;;;;;;;;;;;;;;;5059573;28;19912;-72
2022/04/07 10:06:44;;;;;;;;;;;;;;;;;;5057698;28;19909;-71
2022/04/07 10:09:11;;;;;;;;;;;;;;;;;;5069562;28;19974;-73
2022/04/07 10:11:37;;;;;;;;;;;;;;;;;;5058358;28;19917;-72
2022/04/07 10:14:02;;;;;;;;;;;;;;;;;;5053581;28;20000;-72
2022/04/07 10:16:28;;;;;;;;;;;;;;;;;;5053233;28;20335;-73
2022/04/07 10:18:55;;;;;;;;;;;;;;;;;;5060164;28;19909;-73
2022/04/07 10:21:20;;;;;;;;;;;;;;;;;;5056565;28;19909;-74
2022/04/07 10:23:46;;;;;;;;;;;;;;;;;;5070221;28;20261;-71
2022/04/07 10:26:12;;;;;;;;;;;;;;;;;;5069828;28;19909;-72
2022/04/07 10:28:38;;;;;;;;;;;;;;;;;;5071054;28;19908;-73
2022/04/07 10:31:04;;;;;;;;;;;;;;;;;;5063197;28;19954;-73
2022/04/07 10:33:30;;;;;;;;;;;;;;;;;;5053414;28;19996;-72
2022/04/07 10:35:56;;;;;;;;;;;;;;;;;;5062545;28;19927;-72
2022/04/07 10:38:22;;;;;;;;;;;;;;;;;;5057218;28;19905;-76
2022/04/07 10:40:51;;;;;;;;;;;;;;;;;;5071223;28;19912;-76
2022/04/07 10:43:18;;;;;;;;;;;;;;;;;;5057825;28;19956;-75
2022/04/07 10:45:45;;;;;;;;;;;;;;;;;;5066622;28;19966;-78
2022/04/07 10:48:11;;;;;;;;;;;;;;;;;;5059369;28;20278;-74
2022/04/07 10:50:36;;;;;;;;;;;;;;;;;;5061730;28;19944;-75
2022/04/07 10:53:02;;;;;;;;;;;;;;;;;;5064446;28;19999;-74
2022/04/07 10:55:28;;;;;;;;;;;;;;;;;;5060478;28;20347;-77
2022/04/07 10:57:54;;;;;;;;;;;;;;;;;;5066749;28;19916;-77
2022/04/07 11:00:20;;;;;;;;;;;;;;;;;;5062337;28;19908;-75
2022/04/07 11:02:46;;;;;;;;;;;;;;;;;;5068363;28;19908;-75
2022/04/07 11:05:16;;;;;;;;;;;;;;;;;;5058652;28;19948;-79
2022/04/07 11:07:41;;;;;;;;;;;;;;;;;;5066606;28;19912;-74
2022/04/07 11:10:11;;;;;;;;;;;;;;;;;;5064947;28;19919;-74
2022/04/07 11:12:43;;;;;;;;;;;;;;;;;;5067894;28;19912;-73
2022/04/07 11:15:09;;;;;;;;;;;;;;;;;;5062414;28;19978;-74
2022/04/07 11:17:34;;;;;;;;;;;;;;;;;;5060920;28;19908;-71
2022/04/07 11:20:00;;;;;;;;;;;;;;;;;;5063330;28;20008;-73
2022/04/07 11:22:26;;;;;;;;;;;;;;;;;;5066968;28;19927;-73
2022/04/07 11:24:54;;;;;;;;;;;;;;;;;;5064946;28;20370;-75
2022/04/07 11:27:19;;;;;;;;;;;;;;;;;;5069298;28;19908;-76
2022/04/07 11:29:45;;;;;;;;;;;;;;;;;;5080846;28;19987;-76
2022/04/07 11:32:11;;;;;;;;;;;;;;;;;;5071330;28;19914;-75
2022/04/07 11:34:38;;;;;;;;;;;;;;;;;;5058528;28;19916;-75
2022/04/07 11:37:04;;;;;;;;;;;;;;;;;;5068744;28;19909;-72
2022/04/07 11:39:31;;;;;;;;;;;;;;;;;;5062973;28;19912;-74
2022/04/07 11:41:59;;;;;;;;;;;;;;;;;;5070043;28;19916;-72
2022/04/07 11:44:25;;;;;;;;;;;;;;;;;;5071018;28;19920;-72
2022/04/07 11:46:51;;;;;;;;;;;;;;;;;;5062680;28;19908;-75
2022/04/07 11:49:17;;;;;;;;;;;;;;;;;;5068001;28;19958;-73
2022/04/07 11:51:43;;;;;;;;;;;;;;;;;;5054369;28;19917;-72
2022/04/07 11:54:09;;;;;;;;;;;;;;;;;;5064286;28;19909;-73
2022/04/07 11:56:38;;;;;;;;;;;;;;;;;;5073194;28;20421;-72
2022/04/07 11:59:05;;;;;;;;;;;;;;;;;;5072897;28;19908;-74
2022/04/07 12:01:31;;;;;;;;;;;;;;;;;;5058731;28;19916;-76
2022/04/07 12:03:57;;;;;;;;;;;;;;;;;;5071693;28;19908;-72
2022/04/07 12:06:22;;;;;;;;;;;;;;;;;;5063761;28;19909;-74
2022/04/07 12:08:48;;;;;;;;;;;;;;;;;;5066165;28;19912;-75
2022/04/07 12:11:14;;;;;;;;;;;;;;;;;;5057545;28;19908;-75
2022/04/07 12:13:40;;;;;;;;;;;;;;;;;;5074185;28;19904;-78
2022/04/07 12:16:06;;;;;;;;;;;;;;;;;;5067492;28;19954;-77
2022/04/07 12:18:32;;;;;;;;;;;;;;;;;;5064127;28;19966;-77
2022/04/07 12:20:58;;;;;;;;;;;;;;;;;;5059622;28;20391;-75
2022/04/07 12:23:24;;;;;;;;;;;;;;;;;;5067009;28;19915;-73
2022/04/07 12:25:50;;;;;;;;;;;;;;;;;;5067736;28;19912;-74
2022/04/07 12:28:20;;;;;;;;;;;;;;;;;;5071007;28;20277;-75
2022/04/07 12:30:46;;;;;;;;;;;;;;;;;;5067013;28;19910;-75
2022/04/07 12:33:12;;;;;;;;;;;;;;;;;;5061371;28;20066;-74
2022/04/07 12:35:38;;;;;;;;;;;;;;;;;;5063207;28;19978;-76
2022/04/07 12:38:04;;;;;;;;;;;;;;;;;;5063085;28;19931;-74
2022/04/07 12:40:30;;;;;;;;;;;;;;;;;;5076086;28;19935;-75
2022/04/07 12:42:56;;;;;;;;;;;;;;;;;;5070926;28;19908;-77
2022/04/07 12:45:22;;;;;;;;;;;;;;;;;;5069739;28;19966;-76
2022/04/07 12:47:48;;;;;;;;;;;;;;;;;;5061510;28;20392;-75
2022/04/07 12:50:14;;;;;;;;;;;;;;;;;;5058595;28;19909;-78
2022/04/07 12:52:41;;;;;;;;;;;;;;;;;;5060833;28;19967;-76
2022/04/07 12:55:10;;;;;;;;;;;;;;;;;;5083179;28;20007;-75
2022/04/07 12:57:38;;;;;;;;;;;;;;;;;;5062924;28;19915;-76
2022/04/07 13:00:07;;;;;;;;;;;;;;;;;;5065429;28;19915;-75
2022/04/07 13:02:33;;;;;;;;;;;;;;;;;;5065925;28;19950;-73
2022/04/07 13:04:59;;;;;;;;;;;;;;;;;;5071276;28;19913;-72
2022/04/07 13:07:25;;;;;;;;;;;;;;;;;;5064386;28;19908;-75
2022/04/07 13:09:51;;;;;;;;;;;;;;;;;;5064258;28;19915;-76
2022/04/07 13:12:17;;;;;;;;;;;;;;;;;;5057655;28;20348;-75
2022/04/07 13:14:43;;;;;;;;;;;;;;;;;;5065260;28;20007;-73
2022/04/07 13:17:12;;;;;;;;;;;;;;;;;;5063648;28;20003;-74
2022/04/07 13:19:38;;;;;;;;;;;;;;;;;;5057489;28;19981;-73
2022/04/07 13:22:04;;;;;;;;;;;;;;;;;;5058011;28;19987;-75
2022/04/07 13:24:30;;;;;;;;;;;;;;;;;;5060382;28;19912;-72
2022/04/07 13:26:56;;;;;;;;;;;;;;;;;;5054968;28;19909;-73
2022/04/07 13:29:23;;;;;;;;;;;;;;;;;;5060358;28;19993;-74
2022/04/07 13:31:49;;;;;;;;;;;;;;;;;;5065462;28;19995;-72
2022/04/07 13:34:15;;;;;;;;;;;;;;;;;;5064518;28;19908;-70
2022/04/07 13:36:41;;;;;;;;;;;;;;;;;;5063217;28;19908;-69
2022/04/07 13:39:07;;;;;;;;;;;;;;;;;;5066429;28;20315;-70
2022/04/07 13:41:33;;;;;;;;;;;;;;;;;;5068624;28;20376;-69
2022/04/07 13:43:59;;;;;;;;;;;;;;;;;;5055636;28;19935;-68
2022/04/07 13:46:24;;;;;;;;;;;;;;;;;;5061170;28;20369;-69
2022/04/07 13:48:50;;;;;;;;;;;;;;;;;;5055763;28;19916;-68
2022/04/07 13:51:16;;;;;;;;;;;;;;;;;;5059464;28;20243;-68
2022/04/07 13:53:42;;;;;;;;;;;;;;;;;;5061142;28;19953;-70
2022/04/07 13:56:09;;;;;;;;;;;;;;;;;;5063506;28;19909;-69
2022/04/07 13:58:35;;;;;;;;;;;;;;;;;;5057418;28;19909;-69
2022/04/07 14:01:01;;;;;;;;;;;;;;;;;;5057127;28;20338;-69
2022/04/07 14:03:26;;;;;;;;;;;;;;;;;;5061488;28;19908;-70
2022/04/07 14:05:58;;;;;;;;;;;;;;;;;;5058205;28;20380;-70
2022/04/07 14:08:24;;;;;;;;;;;;;;;;;;5065370;28;19916;-70
2022/04/07 14:10:50;;;;;;;;;;;;;;;;;;5061673;28;19904;-70
2022/04/07 14:13:18;;;;;;;;;;;;;;;;;;5057419;28;19916;-69
2022/04/07 14:15:45;;;;;;;;;;;;;;;;;;5058645;28;19999;-69
2022/04/07 14:18:11;;;;;;;;;;;;;;;;;;5063466;28;19954;-69
2022/04/07 14:20:37;;;;;;;;;;;;;;;;;;5063417;28;20323;-70
2022/04/07 14:23:03;;;;;;;;;;;;;;;;;;5058657;28;19952;-69
2022/04/07 14:25:29;;;;;;;;;;;;;;;;;;5058630;28;20003;-69
2022/04/07 14:27:55;;;;;;;;;;;;;;;;;;5068306;28;19976;-71
2022/04/07 14:30:21;;;;;;;;;;;;;;;;;;5058142;28;20341;-71
2022/04/07 14:32:47;;;;;;;;;;;;;;;;;;5068106;28;20002;-70
2022/04/07 14:35:13;;;;;;;;;;;;;;;;;;5059002;28;19909;-71
2022/04/07 14:37:39;;;;;;;;;;;;;;;;;;5060162;28;20003;-73
2022/04/07 14:40:05;;;;;;;;;;;;;;;;;;5062915;28;20373;-72
2022/04/07 14:42:31;;;;;;;;;;;;;;;;;;5081262;28;20373;-71
2022/04/07 14:44:57;;;;;;;;;;;;;;;;;;5067289;28;19970;-71
2022/04/07 14:47:23;;;;;;;;;;;;;;;;;;5063866;28;19942;-66
2022/04/07 14:49:49;;;;;;;;;;;;;;;;;;5055642;28;19983;-68
2022/04/07 14:52:15;;;;;;;;;;;;;;;;;;5067133;28;20258;-69
2022/04/07 14:54:41;;;;;;;;;;;;;;;;;;5065043;28;19915;-70
2022/04/07 14:57:07;;;;;;;;;;;;;;;;;;5068251;28;19943;-70
2022/04/07 14:59:33;;;;;;;;;;;;;;;;;;5062838;28;19915;-68
2022/04/07 15:01:59;;;;;;;;;;;;;;;;;;5059329;28;19920;-70
2022/04/07 15:04:25;;;;;;;;;;;;;;;;;;5061325;28;19912;-69
2022/04/07 15:06:51;;;;;;;;;;;;;;;;;;5063517;28;20345;-69
2022/04/07 15:09:20;;;;;;;;;;;;;;;;;;5061129;28;19915;-67
2022/04/07 15:11:46;;;;;;;;;;;;;;;;;;5060158;28;19908;-70
2022/04/07 15:14:12;;;;;;;;;;;;;;;;;;5064763;28;19916;-69
2022/04/07 15:16:38;;;;;;;;;;;;;;;;;;5066226;28;19908;-69
2022/04/07 15:19:05;;;;;;;;;;;;;;;;;;5060932;28;19995;-72
2022/04/07 15:21:31;;;;;;;;;;;;;;;;;;5060072;28;20002;-71
2022/04/07 15:23:56;;;;;;;;;;;;;;;;;;5076633;28;20433;-73
2022/04/07 15:26:22;;;;;;;;;;;;;;;;;;5066781;28;20007;-72
2022/04/07 15:28:48;;;;;;;;;;;;;;;;;;5054630;28;19909;-71
2022/04/07 15:31:16;;;;;;;;;;;;;;;;;;5058183;28;19939;-68
2022/04/07 15:33:44;;;;;;;;;;;;;;;;;;5074624;28;19905;-66
2022/04/07 15:36:10;;;;;;;;;;;;;;;;;;5074854;28;20337;-68
2022/04/07 15:38:36;;;;;;;;;;;;;;;;;;5074554;28;20265;-69
2022/04/07 15:41:02;;;;;;;;;;;;;;;;;;5074609;28;19904;-69
2022/04/07 15:43:28;;;;;;;;;;;;;;;;;;5074800;28;19919;-70
2022/04/07 15:45:54;;;;;;;;;;;;;;;;;;5074549;28;19909;-66
2022/04/07 15:48:20;;;;;;;;;;;;;;;;;;5074548;28;19911;-72
2022/04/07 15:50:46;;;;;;;;;;;;;;;;;;5074161;28;19999;-70
2022/04/07 15:53:13;;;;;;;;;;;;;;;;;;5074667;28;19908;-68
2022/04/07 15:55:39;;;;;;;;;;;;;;;;;;5074607;28;19905;-68
2022/04/07 15:58:05;;;;;;;;;;;;;;;;;;5074139;28;20345;-68
2022/04/07 16:00:31;;;;;;;;;;;;;;;;;;5056673;28;19904;-66
2022/04/07 16:02:57;;;;;;;;;;;;;;;;;;5052152;28;20337;-69
2022/04/07 16:05:23;;;;;;;;;;;;;;;;;;5053272;28;19908;-65
2022/04/07 16:07:49;;;;;;;;;;;;;;;;;;5052158;28;19905;-66
2022/04/07 16:10:16;;;;;;;;;;;;;;;;;;5052647;28;19932;-68
2022/04/07 16:12:42;;;;;;;;;;;;;;;;;;5052343;28;19912;-68
2022/04/07 16:15:07;;;;;;;;;;;;;;;;;;5052414;28;20568;-67
2022/04/07 16:17:33;;;;;;;;;;;;;;;;;;5054087;28;19904;-68
2022/04/07 16:20:01;;;;;;;;;;;;;;;;;;5053657;28;19998;-68
2022/04/07 16:22:27;;;;;;;;;;;;;;;;;;5054207;28;20327;-67
2022/04/07 16:24:53;;;;;;;;;;;;;;;;;;5054281;28;19909;-69
2022/04/07 16:27:19;;;;;;;;;;;;;;;;;;5054078;28;20288;-67
2022/04/07 16:29:45;;;;;;;;;;;;;;;;;;5053452;28;20357;-66
2022/04/07 16:32:10;;;;;;;;;;;;;;;;;;5052384;28;19905;-64
2022/04/07 16:34:36;;;;;;;;;;;;;;;;;;5053642;28;19909;-65
2022/04/07 16:37:03;;;;;;;;;;;;;;;;;;5053638;28;19912;-69